Time;durP1;ratioP1;P1;durP2;ratioP2;P2;SDS_P1;SDS_P2;PMS_P1;PMS_P2;Temp;Humidity;BMP_temperature;BMP_pressure;BME280_temperature;BME280_humidity;BME280_pressure;Samples;Min_cycle;Max_cycle;Signal;HPM_P1;HPM_P2
2021/11/13 00:01:10;;;;;;;35.93;24.47;;;;;;;;;;5094028;28;20170;-81
2021/11/13 00:03:35;;;;;;;36.40;23.93;;;;;;;;;;5096428;28;20170;-80
2021/11/13 00:06:00;;;;;;;36.00;25.70;;;;;;;;;;5105811;28;20660;-78
2021/11/13 00:08:26;;;;;;;38.20;26.27;;;;;;;;;;5107566;28;20158;-79
2021/11/13 00:10:51;;;;;;;45.57;25.63;;;;;;;;;;5113863;28;20621;-76
2021/11/13 00:13:19;;;;;;;40.07;26.07;;;;;;;;;;5090519;28;20159;-82
2021/11/13 00:15:44;;;;;;;42.50;25.93;;;;;;;;;;5107717;28;20637;-77
2021/11/13 00:18:10;;;;;;;37.13;25.33;;;;;;;;;;5094239;28;20449;-83
2021/11/13 00:20:35;;;;;;;35.50;25.10;;;;;;;;;;5093686;28;20199;-82
2021/11/13 00:23:01;;;;;;;34.87;23.47;;;;;;;;;;5093307;28;20523;-82
2021/11/13 00:25:26;;;;;;;50.27;27.27;;;;;;;;;;5075419;28;20167;-82
2021/11/13 00:27:52;;;;;;;41.40;26.67;;;;;;;;;;5093564;28;20158;-82
2021/11/13 00:30:17;;;;;;;48.17;27.20;;;;;;;;;;5096982;28;20180;-83
2021/11/13 00:32:43;;;;;;;38.50;26.97;;;;;;;;;;5110756;28;20230;-83
2021/11/13 00:35:09;;;;;;;41.67;27.67;;;;;;;;;;5092976;28;20192;-83
2021/11/13 00:37:34;;;;;;;51.10;29.73;;;;;;;;;;5092190;28;20203;-79
2021/11/13 00:39:59;;;;;;;38.43;25.27;;;;;;;;;;5094136;28;20163;-81
2021/11/13 00:42:25;;;;;;;42.23;27.00;;;;;;;;;;5074750;28;20567;-81
2021/11/13 00:44:50;;;;;;;41.13;27.33;;;;;;;;;;5092440;28;20164;-82
2021/11/13 00:47:16;;;;;;;33.27;24.47;;;;;;;;;;5092351;28;20167;-83
2021/11/13 00:49:42;;;;;;;34.57;23.37;;;;;;;;;;5093184;28;20148;-81
2021/11/13 00:52:08;;;;;;;34.50;22.10;;;;;;;;;;5093156;28;20896;-82
2021/11/13 00:54:34;;;;;;;29.73;19.83;;;;;;;;;;5093765;28;20258;-82
2021/11/13 00:57:00;;;;;;;31.03;19.53;;;;;;;;;;5093468;28;20407;-80
2021/11/13 00:59:25;;;;;;;29.30;18.40;;;;;;;;;;5092705;28;20158;-83
2021/11/13 01:01:50;;;;;;;33.80;20.47;;;;;;;;;;5093103;28;20398;-82
2021/11/13 01:04:16;;;;;;;31.20;19.57;;;;;;;;;;5074263;28;20633;-78
2021/11/13 01:06:41;;;;;;;27.87;17.90;;;;;;;;;;5091986;28;20210;-81
2021/11/13 01:09:07;;;;;;;29.37;18.23;;;;;;;;;;5092521;28;20148;-81
2021/11/13 01:11:33;;;;;;;30.13;18.60;;;;;;;;;;5092076;28;20187;-77
2021/11/13 01:13:59;;;;;;;28.83;17.73;;;;;;;;;;5092284;28;20610;-80
2021/11/13 01:16:26;;;;;;;29.23;18.43;;;;;;;;;;5083101;28;20540;-77
2021/11/13 01:18:51;;;;;;;36.27;19.23;;;;;;;;;;5103454;28;20413;-81
2021/11/13 01:21:16;;;;;;;24.23;16.30;;;;;;;;;;5091796;28;20406;-79
2021/11/13 01:23:42;;;;;;;27.07;17.80;;;;;;;;;;5093047;28;20159;-83
2021/11/13 01:26:08;;;;;;;25.27;17.23;;;;;;;;;;5097737;28;20177;-81
2021/11/13 01:28:34;;;;;;;28.57;18.27;;;;;;;;;;5112741;28;20158;-82
2021/11/13 01:30:59;;;;;;;29.60;17.77;;;;;;;;;;5093756;28;20417;-80
2021/11/13 01:33:24;;;;;;;32.60;19.27;;;;;;;;;;5094291;28;20151;-81
2021/11/13 01:35:50;;;;;;;28.50;18.90;;;;;;;;;;5092661;28;20733;-81
2021/11/13 01:38:15;;;;;;;32.10;19.17;;;;;;;;;;5093369;28;20689;-77
2021/11/13 01:40:41;;;;;;;36.83;19.30;;;;;;;;;;5113263;28;20570;-80
2021/11/13 01:43:06;;;;;;;30.43;19.30;;;;;;;;;;5098478;28;20179;-79
2021/11/13 01:45:31;;;;;;;31.40;18.40;;;;;;;;;;5101002;28;20155;-81
2021/11/13 01:47:57;;;;;;;32.90;19.43;;;;;;;;;;5076121;28;20171;-81
2021/11/13 01:50:25;;;;;;;29.00;17.27;;;;;;;;;;5098818;28;20160;-80
2021/11/13 01:52:51;;;;;;;27.60;17.60;;;;;;;;;;5091262;28;20170;-80
2021/11/13 01:55:17;;;;;;;29.90;18.43;;;;;;;;;;5095033;28;20503;-82
2021/11/13 01:57:46;;;;;;;28.97;17.27;;;;;;;;;;5112268;28;20453;-81
2021/11/13 02:00:13;;;;;;;28.53;18.90;;;;;;;;;;5111738;28;20522;-82
2021/11/13 02:02:39;;;;;;;28.27;16.97;;;;;;;;;;5108845;28;20826;-82
2021/11/13 02:05:05;;;;;;;35.70;17.43;;;;;;;;;;5092290;28;20389;-82
2021/11/13 02:07:31;;;;;;;30.27;18.80;;;;;;;;;;5102268;28;20748;-80
2021/11/13 02:09:56;;;;;;;28.90;17.20;;;;;;;;;;5091813;28;20380;-82
2021/11/13 02:12:22;;;;;;;23.57;17.60;;;;;;;;;;5100117;28;20213;-80
2021/11/13 02:14:47;;;;;;;28.23;16.17;;;;;;;;;;5109647;28;20163;-79
2021/11/13 02:17:12;;;;;;;29.37;15.97;;;;;;;;;;5095482;28;20198;-82
2021/11/13 02:19:38;;;;;;;25.93;17.03;;;;;;;;;;5103876;28;20152;-80
2021/11/13 02:22:04;;;;;;;29.63;17.67;;;;;;;;;;5091550;28;20613;-78
2021/11/13 02:24:29;;;;;;;26.87;18.63;;;;;;;;;;5092245;28;20171;-81
2021/11/13 02:26:54;;;;;;;24.30;18.00;;;;;;;;;;5095949;28;20417;-81
2021/11/13 02:29:20;;;;;;;29.90;17.10;;;;;;;;;;5112641;28;20173;-81
2021/11/13 02:31:46;;;;;;;30.50;17.13;;;;;;;;;;5110044;28;20280;-83
2021/11/13 02:34:12;;;;;;;24.40;16.90;;;;;;;;;;5094913;28;20518;-84
2021/11/13 02:36:38;;;;;;;39.03;18.50;;;;;;;;;;5104052;28;20471;-84
2021/11/13 02:39:05;;;;;;;26.07;17.70;;;;;;;;;;5107808;28;20405;-83
2021/11/13 02:41:30;;;;;;;27.53;17.10;;;;;;;;;;5091396;28;20167;-80
2021/11/13 02:43:56;;;;;;;27.97;18.63;;;;;;;;;;5108508;28;20397;-79
2021/11/13 02:46:22;;;;;;;26.00;16.83;;;;;;;;;;5105954;28;20159;-83
2021/11/13 02:48:47;;;;;;;26.43;15.70;;;;;;;;;;5111475;28;20413;-81
2021/11/13 02:51:13;;;;;;;27.07;18.03;;;;;;;;;;5098760;28;20160;-80
2021/11/13 02:53:39;;;;;;;27.47;18.70;;;;;;;;;;5101926;28;20241;-81
2021/11/13 02:56:06;;;;;;;32.90;19.23;;;;;;;;;;5111802;28;20156;-76
2021/11/13 02:58:32;;;;;;;27.13;18.47;;;;;;;;;;5111783;28;20401;-78
2021/11/13 03:00:59;;;;;;;31.00;18.87;;;;;;;;;;5111223;28;20479;-83
2021/11/13 03:03:25;;;;;;;34.47;22.77;;;;;;;;;;5114881;28;20461;-77
2021/11/13 03:05:55;;;;;;;42.20;24.80;;;;;;;;;;5114176;28;20915;-80
2021/11/13 03:08:25;;;;;;;36.17;23.80;;;;;;;;;;5095177;28;20626;-79
2021/11/13 03:10:52;;;;;;;38.20;25.27;;;;;;;;;;5096870;28;20862;-77
2021/11/13 03:13:17;;;;;;;42.57;26.00;;;;;;;;;;5076178;28;20467;-81
2021/11/13 03:15:43;;;;;;;32.87;22.30;;;;;;;;;;5112551;28;20401;-79
2021/11/13 03:18:08;;;;;;;33.70;22.40;;;;;;;;;;5096919;28;20669;-81
2021/11/13 03:20:33;;;;;;;32.73;21.47;;;;;;;;;;5115577;28;20185;-80
2021/11/13 03:23:00;;;;;;;30.97;20.53;;;;;;;;;;5099858;28;20254;-79
2021/11/13 03:25:29;;;;;;;30.40;20.07;;;;;;;;;;5104280;28;20174;-74
2021/11/13 03:27:58;;;;;;;29.00;18.37;;;;;;;;;;5090092;28;20417;-74
2021/11/13 03:30:23;;;;;;;33.53;18.73;;;;;;;;;;5096880;28;20484;-80
2021/11/13 03:32:50;;;;;;;30.47;19.43;;;;;;;;;;5094301;28;20389;-80
2021/11/13 03:35:17;;;;;;;30.97;19.27;;;;;;;;;;5094720;28;20176;-80
2021/11/13 03:37:43;;;;;;;30.40;19.60;;;;;;;;;;5094698;28;20462;-81
2021/11/13 03:40:10;;;;;;;30.30;18.20;;;;;;;;;;5074969;28;20387;-85
2021/11/13 03:42:36;;;;;;;28.30;19.33;;;;;;;;;;5095026;28;20809;-80
2021/11/13 03:45:02;;;;;;;25.90;18.30;;;;;;;;;;5097404;28;20421;-82
2021/11/13 03:47:28;;;;;;;27.23;17.77;;;;;;;;;;5104573;28;20458;-81
2021/11/13 03:49:53;;;;;;;27.80;17.40;;;;;;;;;;5102277;28;20410;-78
2021/11/13 03:52:19;;;;;;;29.77;19.67;;;;;;;;;;5099271;28;20253;-77
2021/11/13 03:54:44;;;;;;;27.67;17.07;;;;;;;;;;5114388;28;20598;-77
2021/11/13 03:57:09;;;;;;;27.63;16.43;;;;;;;;;;5114491;28;20193;-78
2021/11/13 03:59:35;;;;;;;27.07;18.20;;;;;;;;;;5105141;28;20171;-82
2021/11/13 04:02:00;;;;;;;29.23;17.97;;;;;;;;;;5094273;28;20246;-83
2021/11/13 04:04:25;;;;;;;27.90;17.00;;;;;;;;;;5107366;28;20194;-80
2021/11/13 04:06:51;;;;;;;29.20;16.10;;;;;;;;;;5105148;28;20159;-75
2021/11/13 04:09:16;;;;;;;23.47;16.20;;;;;;;;;;5113907;28;20150;-83
2021/11/13 04:11:42;;;;;;;21.80;16.93;;;;;;;;;;5114601;28;20155;-84
2021/11/13 04:14:07;;;;;;;24.60;15.23;;;;;;;;;;5114253;28;20182;-82
2021/11/13 04:16:33;;;;;;;23.77;16.20;;;;;;;;;;5096132;28;20202;-83
2021/11/13 04:18:58;;;;;;;25.30;15.23;;;;;;;;;;5114368;28;20232;-84
2021/11/13 04:21:23;;;;;;;21.30;14.10;;;;;;;;;;5108273;28;20221;-82
2021/11/13 04:23:49;;;;;;;24.43;15.63;;;;;;;;;;5114725;28;20277;-83
2021/11/13 04:26:14;;;;;;;30.63;19.00;;;;;;;;;;5111167;28;20160;-83
2021/11/13 04:28:39;;;;;;;27.47;17.90;;;;;;;;;;5094457;28;20170;-84
2021/11/13 04:31:05;;;;;;;23.00;15.10;;;;;;;;;;5103409;28;20227;-83
2021/11/13 04:33:33;;;;;;;27.50;16.43;;;;;;;;;;5086153;28;20254;-78
2021/11/13 04:36:19;;;;;;;24.33;15.80;;;;;;;;;;5104436;28;20217;-83
2021/11/13 04:38:44;;;;;;;23.60;14.77;;;;;;;;;;5083668;28;20452;-81
2021/11/13 04:41:10;;;;;;;22.77;15.43;;;;;;;;;;5093529;28;20432;-82
2021/11/13 04:43:35;;;;;;;23.37;14.77;;;;;;;;;;5104699;28;20197;-81
2021/11/13 04:46:01;;;;;;;23.43;14.57;;;;;;;;;;5111908;28;20538;-81
2021/11/13 04:48:27;;;;;;;23.40;15.23;;;;;;;;;;5093526;28;20193;-79
2021/11/13 04:50:52;;;;;;;22.47;15.33;;;;;;;;;;5074532;28;20765;-80
2021/11/13 04:53:18;;;;;;;23.03;16.17;;;;;;;;;;5096218;28;20418;-82
2021/11/13 04:55:43;;;;;;;23.00;14.90;;;;;;;;;;5093796;28;20159;-80
2021/11/13 04:58:08;;;;;;;26.73;16.50;;;;;;;;;;5111003;28;20195;-78
2021/11/13 05:00:34;;;;;;;23.43;15.80;;;;;;;;;;5112533;28;20243;-82
2021/11/13 05:03:00;;;;;;;25.40;16.80;;;;;;;;;;5107611;28;20168;-77
2021/11/13 05:05:25;;;;;;;28.43;15.80;;;;;;;;;;5097963;28;20170;-80
2021/11/13 05:07:51;;;;;;;27.63;18.07;;;;;;;;;;5107006;28;20160;-78
2021/11/13 05:10:16;;;;;;;31.23;18.53;;;;;;;;;;5092957;28;20148;-80
2021/11/13 05:12:42;;;;;;;31.53;18.17;;;;;;;;;;5092450;28;20185;-81
2021/11/13 05:15:09;;;;;;;32.37;19.10;;;;;;;;;;5093003;28;20454;-81
2021/11/13 05:17:34;;;;;;;38.40;20.77;;;;;;;;;;5109963;28;20282;-76
2021/11/13 05:20:01;;;;;;;27.07;19.73;;;;;;;;;;5111984;28;20503;-78
2021/11/13 05:22:26;;;;;;;30.30;20.80;;;;;;;;;;5098777;28;20692;-82
2021/11/13 05:24:51;;;;;;;28.50;19.23;;;;;;;;;;5091558;28;20408;-80
2021/11/13 05:27:18;;;;;;;33.97;20.23;;;;;;;;;;5092003;28;20653;-80
2021/11/13 05:29:43;;;;;;;37.73;22.77;;;;;;;;;;5111461;28;20162;-82
2021/11/13 05:32:08;;;;;;;35.03;21.00;;;;;;;;;;5094978;28;20406;-82
2021/11/13 05:34:34;;;;;;;38.97;21.20;;;;;;;;;;5104961;28;20151;-84
2021/11/13 05:36:59;;;;;;;31.37;20.20;;;;;;;;;;5073761;28;20276;-84
2021/11/13 05:39:24;;;;;;;33.97;18.17;;;;;;;;;;5101265;28;20533;-84
2021/11/13 05:41:50;;;;;;;29.60;18.47;;;;;;;;;;5112419;28;20170;-82
2021/11/13 05:44:16;;;;;;;33.10;19.90;;;;;;;;;;5111875;28;20170;-81
2021/11/13 05:46:41;;;;;;;28.73;18.30;;;;;;;;;;5092429;28;20147;-83
2021/11/13 05:49:06;;;;;;;33.43;19.37;;;;;;;;;;5092121;28;20163;-82
2021/11/13 05:51:32;;;;;;;33.93;19.87;;;;;;;;;;5092426;28;20148;-84
2021/11/13 05:53:57;;;;;;;32.40;19.40;;;;;;;;;;5101070;28;20175;-85
2021/11/13 05:56:22;;;;;;;32.90;20.70;;;;;;;;;;5112349;28;20158;-79
2021/11/13 05:58:48;;;;;;;35.10;19.60;;;;;;;;;;5107042;28;20599;-77
2021/11/13 06:01:13;;;;;;;22.53;15.80;;;;;;;;;;5101001;28;20531;-82
2021/11/13 06:03:38;;;;;;;28.40;16.93;;;;;;;;;;5092461;28;20162;-84
2021/11/13 06:06:04;;;;;;;22.90;15.33;;;;;;;;;;5091525;28;20152;-77
2021/11/13 06:08:29;;;;;;;27.40;17.20;;;;;;;;;;5100671;28;20164;-83
2021/11/13 06:10:54;;;;;;;27.00;15.03;;;;;;;;;;5072037;28;20168;-83
2021/11/13 06:13:20;;;;;;;26.20;15.43;;;;;;;;;;5053793;28;20156;-80
2021/11/13 06:15:45;;;;;;;21.27;14.60;;;;;;;;;;5074146;28;20195;-72
2021/11/13 06:18:10;;;;;;;31.83;17.37;;;;;;;;;;5080281;28;20191;-78
2021/11/13 06:20:37;;;;;;;29.20;17.90;;;;;;;;;;5096171;28;20217;-75
2021/11/13 06:23:02;;;;;;;26.40;16.10;;;;;;;;;;5101971;28;20173;-79
2021/11/13 06:25:28;;;;;;;30.27;17.93;;;;;;;;;;5101196;28;20387;-80
2021/11/13 06:27:53;;;;;;;33.90;19.40;;;;;;;;;;5093050;28;20247;-82
2021/11/13 06:30:18;;;;;;;28.30;18.97;;;;;;;;;;5076202;28;20159;-80
2021/11/13 06:32:46;;;;;;;34.70;21.83;;;;;;;;;;5092916;28;20176;-76
2021/11/13 06:35:11;;;;;;;30.20;20.70;;;;;;;;;;5092670;28;20623;-80
2021/11/13 06:37:37;;;;;;;37.00;21.83;;;;;;;;;;5095597;28;20457;-79
2021/11/13 06:40:03;;;;;;;25.37;18.57;;;;;;;;;;5096193;28;20160;-80
2021/11/13 06:42:29;;;;;;;26.90;15.40;;;;;;;;;;5093730;28;20160;-78
2021/11/13 06:44:54;;;;;;;20.83;14.87;;;;;;;;;;5094913;28;20394;-79
2021/11/13 06:47:19;;;;;;;24.30;14.80;;;;;;;;;;5107074;28;20198;-76
2021/11/13 06:49:45;;;;;;;27.37;15.60;;;;;;;;;;5115135;28;20158;-80
2021/11/13 06:52:10;;;;;;;19.37;14.27;;;;;;;;;;5099187;28;20239;-77
2021/11/13 06:54:35;;;;;;;18.63;10.97;;;;;;;;;;5093942;28;20231;-82
2021/11/13 06:57:01;;;;;;;17.03;9.60;;;;;;;;;;5093116;28;20191;-79
2021/11/13 06:59:27;;;;;;;16.90;6.63;;;;;;;;;;5094901;28;20186;-79
2021/11/13 07:01:52;;;;;;;9.20;4.77;;;;;;;;;;5094805;28;20525;-80
2021/11/13 07:04:18;;;;;;;7.80;3.63;;;;;;;;;;5093857;28;20195;-80
2021/11/13 07:06:43;;;;;;;5.90;3.20;;;;;;;;;;5093896;28;20213;-78
2021/11/13 07:09:08;;;;;;;13.70;2.73;;;;;;;;;;5114300;28;20166;-81
2021/11/13 07:11:34;;;;;;;6.97;2.70;;;;;;;;;;5104729;28;20199;-80
2021/11/13 07:13:59;;;;;;;5.03;2.37;;;;;;;;;;5093512;28;20178;-80
2021/11/13 07:16:24;;;;;;;4.67;2.03;;;;;;;;;;5094072;28;20201;-80
2021/11/13 07:18:49;;;;;;;7.97;2.17;;;;;;;;;;5100314;28;20167;-75
2021/11/13 07:21:15;;;;;;;4.60;2.40;;;;;;;;;;5093294;28;20160;-79
2021/11/13 07:23:40;;;;;;;5.10;1.90;;;;;;;;;;5093230;28;20156;-81
2021/11/13 07:26:11;;;;;;;5.37;1.57;;;;;;;;;;5093897;28;20164;-78
2021/11/13 07:28:40;;;;;;;6.33;1.80;;;;;;;;;;5093899;28;20144;-79
2021/11/13 07:31:06;;;;;;;7.00;2.20;;;;;;;;;;5093935;28;20378;-81
2021/11/13 07:33:32;;;;;;;4.53;1.57;;;;;;;;;;5106225;28;20921;-81
2021/11/13 07:35:57;;;;;;;7.03;1.90;;;;;;;;;;5101102;28;20465;-82
2021/11/13 07:38:22;;;;;;;6.27;2.20;;;;;;;;;;5098184;28;20195;-80
2021/11/13 07:40:48;;;;;;;5.60;1.97;;;;;;;;;;5093653;28;20250;-77
2021/11/13 07:43:13;;;;;;;7.83;2.40;;;;;;;;;;5075078;28;20619;-73
2021/11/13 07:45:39;;;;;;;7.00;2.13;;;;;;;;;;5100934;28;20242;-73
2021/11/13 07:48:07;;;;;;;5.57;1.97;;;;;;;;;;5095857;28;20168;-74
2021/11/13 08:01:54;;;;;;;7.73;2.70;;;;;;;14.45;100.00;102149.84;5150406;27;21132;-81
2021/11/13 08:04:19;;;;;;;5.00;1.87;;;;;;;14.62;100.00;102149.69;5151318;27;20422;-79
2021/11/13 08:06:45;;;;;;;8.43;2.10;;;;;;;14.65;100.00;102149.47;5147698;27;20168;-81
2021/11/13 08:30:29;;;;;;;5.63;1.87;;;;;;;15.33;100.00;102145.25;5105808;27;20806;-70
2021/11/13 08:32:56;;;;;;;6.27;1.80;;;;;;;15.34;100.00;102139.88;5105039;28;20417;-72
2021/11/13 08:35:22;;;;;;;6.63;1.90;;;;;;;15.33;100.00;102146.09;5108755;28;20403;-73
2021/11/13 08:37:47;;;;;;;3.77;1.70;;;;;;;15.43;100.00;102141.09;5107703;28;20421;-74
2021/11/13 08:40:13;;;;;;;6.70;2.20;;;;;;;15.58;100.00;102139.25;5106808;28;20171;-73
2021/11/13 08:42:39;;;;;;;5.50;2.33;;;;;;;15.47;100.00;102140.78;5105839;28;20647;-72
2021/11/13 08:45:07;;;;;;;4.47;1.70;;;;;;;15.49;100.00;102141.53;5106716;28;20485;-72
2021/11/13 08:47:36;;;;;;;6.20;2.03;;;;;;;15.58;100.00;102140.09;5106467;28;20660;-72
2021/11/13 08:50:05;;;;;;;5.37;1.90;;;;;;;15.68;100.00;102135.06;5105607;28;20512;-73
2021/11/13 08:52:30;;;;;;;4.40;1.93;;;;;;;15.68;100.00;102143.00;5106703;28;20900;-72
2021/11/13 08:54:56;;;;;;;6.13;1.73;;;;;;;15.72;100.00;102136.56;5106817;28;20462;-73
2021/11/13 08:57:22;;;;;;;5.50;2.50;;;;;;;15.79;100.00;102129.88;5098419;28;20160;-72
2021/11/13 08:59:47;;;;;;;5.10;1.53;;;;;;;15.64;100.00;102129.13;5107791;28;20176;-73
2021/11/13 09:02:17;;;;;;;5.50;1.90;;;;;;;15.79;100.00;102128.13;5106757;28;20164;-74
2021/11/13 09:04:44;;;;;;;6.60;1.80;;;;;;;15.56;100.00;102120.78;5100366;28;20155;-73
2021/11/13 09:07:10;;;;;;;4.67;1.67;;;;;;;15.79;100.00;102124.59;5106119;28;20436;-76
2021/11/13 09:09:37;;;;;;;4.60;1.97;;;;;;;15.92;100.00;102114.88;5106053;28;20417;-71
2021/11/13 09:12:06;;;;;;;4.83;1.90;;;;;;;15.86;100.00;102117.09;5103960;28;20173;-70
2021/11/13 09:14:33;;;;;;;7.30;1.40;;;;;;;15.71;100.00;102122.44;5097460;28;20413;-70
2021/11/13 09:17:00;;;;;;;5.73;1.90;;;;;;;15.70;100.00;102122.56;5106895;28;20397;-70
2021/11/13 09:19:26;;;;;;;3.60;1.27;;;;;;;15.67;100.00;102120.13;5107575;28;20420;-71
2021/11/13 09:21:52;;;;;;;3.50;1.20;;;;;;;15.79;100.00;102120.16;5107427;28;20938;-70
2021/11/13 09:24:22;;;;;;;5.23;2.10;;;;;;;15.67;100.00;102128.91;5106320;28;20406;-71
2021/11/13 09:26:48;;;;;;;6.00;1.77;;;;;;;15.46;100.00;102128.47;5104930;28;20183;-69
2021/11/13 09:29:16;;;;;;;5.30;1.83;;;;;;;15.35;100.00;102127.50;5097319;28;20892;-71
2021/11/13 09:31:43;;;;;;;4.43;1.90;;;;;;;15.46;100.00;102117.88;5092553;28;20193;-73
2021/11/13 09:34:11;;;;;;;4.30;1.80;;;;;;;15.21;100.00;102121.28;5092664;28;20804;-70
2021/11/13 09:36:36;;;;;;;4.60;1.70;;;;;;;15.29;100.00;102112.00;5093401;28;20944;-70
2021/11/13 09:39:03;;;;;;;5.27;1.60;;;;;;;15.36;100.00;102119.44;5083140;28;20414;-72
2021/11/13 09:41:29;;;;;;;3.60;1.27;;;;;;;15.31;100.00;102116.22;5090183;28;20165;-72
2021/11/13 09:43:55;;;;;;;3.63;1.27;;;;;;;15.35;100.00;102111.59;5093159;28;20382;-72
2021/11/13 09:46:20;;;;;;;7.00;5.70;;;;;;;15.29;100.00;102114.66;5093307;28;20209;-72
2021/11/13 09:48:51;;;;;;;6.70;1.80;;;;;;;15.49;100.00;102108.88;5091379;28;20207;-73
2021/11/13 09:51:19;;;;;;;4.13;1.60;;;;;;;15.49;100.00;102111.53;5091008;28;20171;-71
2021/11/13 09:53:44;;;;;;;3.43;1.30;;;;;;;15.60;100.00;102103.75;5093400;28;20386;-70
2021/11/13 09:56:10;;;;;;;4.17;1.30;;;;;;;15.42;100.00;102104.97;5092232;28;20763;-71
2021/11/13 09:58:36;;;;;;;4.40;1.50;;;;;;;15.58;100.00;102097.69;5093230;28;20555;-70
2021/11/13 10:01:03;;;;;;;4.60;1.90;;;;;;;15.71;100.00;102093.28;5091993;28;20504;-71
2021/11/13 10:03:29;;;;;;;5.87;2.60;;;;;;;15.44;100.00;102092.47;5092610;28;20470;-69
2021/11/13 10:05:59;;;;;;;6.63;2.43;;;;;;;15.81;100.00;102093.56;5093436;28;20382;-72
2021/11/13 10:08:24;;;;;;;11.43;1.53;;;;;;;15.81;100.00;102086.44;5091748;28;20453;-71
2021/11/13 10:10:56;;;;;;;5.20;2.00;;;;;;;15.88;100.00;102086.03;5089647;28;20878;-76
2021/11/13 10:13:34;;;;;;;6.13;2.10;;;;;;;15.85;100.00;102081.78;5092327;28;20168;-80
2021/11/13 10:16:03;;;;;;;6.23;1.90;;;;;;;15.85;100.00;102083.59;5082646;28;20797;-79
2021/11/13 10:18:32;;;;;;;5.20;1.90;;;;;;;16.21;100.00;102080.22;5090595;28;20429;-78
2021/11/13 10:20:58;;;;;;;4.00;1.70;;;;;;;15.93;100.00;102081.25;5092504;28;20405;-75
2021/11/13 10:23:26;;;;;;;6.27;2.33;;;;;;;15.80;100.00;102073.31;5092197;28;20414;-79
2021/11/13 10:26:05;;;;;;;4.03;1.70;;;;;;;16.04;100.00;102076.09;5090593;28;20552;-77
2021/11/13 10:28:39;;;;;;;7.70;2.00;;;;;;;16.27;100.00;102069.22;5087255;28;21066;-79
2021/11/13 10:31:12;;;;;;;7.63;2.30;;;;;;;16.48;100.00;102072.16;5089366;28;20929;-74
2021/11/13 10:33:38;;;;;;;10.10;7.00;;;;;;;16.50;100.00;102068.44;5092688;28;20394;-79
2021/11/13 10:36:05;;;;;;;9.63;2.10;;;;;;;16.46;100.00;102064.28;5091922;28;20885;-77
2021/11/13 10:38:31;;;;;;;7.17;3.57;;;;;;;16.46;100.00;102066.94;5090687;28;20409;-79
2021/11/13 10:41:00;;;;;;;8.73;3.43;;;;;;;16.54;100.00;102067.25;5091694;28;20409;-78
2021/11/13 10:43:39;;;;;;;5.77;2.90;;;;;;;16.48;100.00;102056.25;5091922;28;20629;-78
2021/11/13 10:46:07;;;;;;;7.23;2.20;;;;;;;16.51;100.00;102051.56;5092318;28;20410;-74
2021/11/13 10:48:37;;;;;;;4.80;2.10;;;;;;;16.55;100.00;102054.84;5072334;28;20443;-77
2021/11/13 10:51:15;;;;;;;5.63;2.17;;;;;;;16.36;100.00;102057.94;5072025;28;20412;-75
2021/11/13 10:53:42;;;;;;;4.27;1.60;;;;;;;16.29;100.00;102057.53;5071646;28;20387;-76
2021/11/13 10:56:26;;;;;;;5.53;1.80;;;;;;;16.20;100.00;102063.47;5071491;28;20379;-72
2021/11/13 10:59:00;;;;;;;4.60;1.40;;;;;;;16.33;100.00;102061.69;5086192;28;20457;-72
2021/11/13 11:01:34;;;;;;;4.50;1.67;;;;;;;16.49;100.00;102058.78;5091678;28;20458;-77
2021/11/13 11:04:05;;;;;;;4.60;2.20;;;;;;;16.69;100.00;102052.06;5090439;28;20414;-78
2021/11/13 11:06:38;;;;;;;10.20;1.73;;;;;;;16.78;100.00;102058.56;5091590;28;20440;-71
2021/11/13 11:09:27;;;;;;;3.63;1.43;;;;;;;16.88;100.00;102046.31;5091676;28;20489;-77
2021/11/13 11:11:57;;;;;;;5.67;1.90;;;;;;;16.74;100.00;102047.31;5091168;28;20401;-77
2021/11/13 11:14:27;;;;;;;4.93;1.70;;;;;;;16.87;100.00;102047.28;5091179;28;20409;-76
2021/11/13 11:16:58;;;;;;;5.33;1.47;;;;;;;17.03;100.00;102039.88;5091342;28;20421;-74
2021/11/13 11:19:27;;;;;;;5.03;1.67;;;;;;;17.08;100.00;102036.91;5091892;28;20401;-77
2021/11/13 11:22:11;;;;;;;6.17;2.20;;;;;;;17.15;100.00;102038.13;5091964;28;20470;-78
2021/11/13 11:24:51;;;;;;;4.30;1.23;;;;;;;17.05;100.00;102034.47;5090618;28;20483;-80
2021/11/13 11:27:23;;;;;;;6.73;1.50;;;;;;;16.80;100.00;102036.25;5091283;28;20449;-79
2021/11/13 11:30:02;;;;;;;4.40;1.20;;;;;;;16.71;100.00;102042.22;5091407;28;20969;-81
2021/11/13 11:32:34;;;;;;;4.00;1.30;;;;;;;16.25;100.00;102034.84;5091446;28;20414;-81
2021/11/13 11:35:06;;;;;;;7.50;1.70;;;;;;;16.00;100.00;102040.97;5091269;28;20485;-70
2021/11/13 11:37:36;;;;;;;5.13;1.50;;;;;;;16.05;100.00;102040.66;5089697;28;20408;-81
2021/11/13 11:40:08;;;;;;;4.27;1.70;;;;;;;16.06;100.00;102037.06;5091283;28;20402;-76
2021/11/13 11:42:34;;;;;;;4.43;1.77;;;;;;;15.88;100.00;102036.53;5091293;28;20474;-72
2021/11/13 11:45:01;;;;;;;5.30;1.63;;;;;;;15.83;100.00;102038.63;5090561;28;20418;-73
2021/11/13 11:47:28;;;;;;;5.33;1.47;;;;;;;15.69;100.00;102039.56;5090884;28;20277;-71
2021/11/13 11:49:56;;;;;;;3.73;1.30;;;;;;;15.78;100.00;102032.78;5090800;28;20421;-71
2021/11/13 11:52:24;;;;;;;5.27;1.43;;;;;;;15.95;100.00;102029.84;5090982;28;20478;-71
2021/11/13 11:54:51;;;;;;;4.80;1.70;;;;;;;15.89;100.00;102032.06;5091547;28;20768;-70
2021/11/13 11:57:22;;;;;;;6.00;1.90;;;;;;;16.18;100.00;102036.22;5091639;28;20413;-75
2021/11/13 11:59:49;;;;;;;4.80;1.50;;;;;;;16.13;100.00;102029.53;5091023;28;20386;-75
2021/11/13 12:02:17;;;;;;;5.40;2.33;;;;;;;16.21;100.00;102032.50;5089489;28;20409;-75
2021/11/13 12:04:44;;;;;;;5.30;2.10;;;;;;;16.19;100.00;102032.59;5090069;28;20405;-71
2021/11/13 12:07:13;;;;;;;5.57;2.03;;;;;;;16.07;100.00;102033.44;5088590;28;20469;-69
2021/11/13 12:10:04;;;;;;;5.07;1.93;;;;;;;15.99;100.00;102031.31;5090809;28;20398;-69
2021/11/13 12:12:30;;;;;;;8.63;1.77;;;;;;;15.93;100.00;102023.78;5090806;28;20425;-81
2021/11/13 12:15:16;;;;;;;4.20;1.90;;;;;;;15.94;100.00;102028.13;5090947;28;20928;-75
2021/11/13 12:17:43;;;;;;;4.20;1.67;;;;;;;15.93;100.00;102030.88;5090881;28;20179;-73
2021/11/13 12:20:11;;;;;;;5.27;2.30;;;;;;;15.98;100.00;102028.78;5090243;28;20786;-78
2021/11/13 12:22:50;;;;;;;7.10;1.77;;;;;;;15.80;100.00;102023.78;5091953;28;20420;-81
2021/11/13 12:25:21;;;;;;;7.33;1.50;;;;;;;15.78;100.00;102025.69;5090795;28;20918;-79
2021/11/13 12:28:08;;;;;;;5.30;1.90;;;;;;;15.86;100.00;102024.31;5091915;28;20968;-75
2021/11/13 12:30:58;;;;;;;6.20;2.33;;;;;;;15.78;100.00;102024.84;5091415;28;20901;-79
2021/11/13 12:33:26;;;;;;;6.90;2.47;;;;;;;15.63;100.00;102024.06;5090260;28;20770;-80
2021/11/13 12:35:54;;;;;;;4.70;2.13;;;;;;;15.59;100.00;102025.22;5088456;28;20421;-76
2021/11/13 12:38:41;;;;;;;5.53;1.50;;;;;;;15.66;100.00;102021.22;5089854;28;20429;-76
2021/11/13 12:41:13;;;;;;;6.50;1.90;;;;;;;15.58;100.00;102025.31;5095576;28;20505;-75
2021/11/13 12:43:58;;;;;;;4.67;1.80;;;;;;;15.44;100.00;102023.59;5103455;28;20459;-74
2021/11/13 12:46:37;;;;;;;4.87;2.10;;;;;;;15.49;100.00;102021.47;5108006;28;20963;-73
2021/11/13 12:52:04;;;;;;;8.10;2.40;;;;;;;15.39;100.00;102025.69;5105871;28;20448;-75
2021/11/13 12:54:41;;;;;;;3.57;1.40;;;;;;;15.23;100.00;102033.78;5106686;28;20432;-75
2021/11/13 12:57:13;;;;;;;10.80;2.30;;;;;;;15.08;100.00;102025.06;5103342;28;20469;-73
2021/11/13 12:59:54;;;;;;;5.37;2.10;;;;;;;15.13;100.00;102035.34;5093743;28;20428;-73
2021/11/13 13:02:20;;;;;;;11.50;2.20;;;;;;;15.11;100.00;102034.59;5101926;28;20603;-73
2021/11/13 13:04:47;;;;;;;4.63;1.40;;;;;;;15.12;100.00;102039.81;5083217;28;20788;-73
2021/11/13 13:07:15;;;;;;;5.83;1.77;;;;;;;14.98;100.00;102024.81;5104238;28;20229;-72
2021/11/13 13:10:01;;;;;;;6.70;2.00;;;;;;;15.05;100.00;102019.97;5106760;28;20768;-71
2021/11/13 13:12:37;;;;;;;7.70;2.67;;;;;;;15.08;100.00;102019.75;5091613;28;20861;-72
2021/11/13 13:15:19;;;;;;;8.80;3.63;;;;;;;15.03;100.00;102021.00;5108757;28;20427;-71
2021/11/13 13:17:51;;;;;;;8.07;2.73;;;;;;;15.00;100.00;102019.41;5092685;28;20444;-73
2021/11/13 13:20:33;;;;;;;5.97;2.63;;;;;;;15.03;100.00;102021.84;5112255;28;20434;-72
2021/11/13 13:23:23;;;;;;;7.10;3.00;;;;;;;15.05;100.00;102017.31;5073151;28;20720;-71
2021/11/13 13:25:51;;;;;;;13.53;6.70;;;;;;;14.96;100.00;102008.19;5082303;28;20955;-71
2021/11/13 13:28:21;;;;;;;7.13;3.37;;;;;;;14.90;100.00;101998.00;5113677;28;20898;-70
2021/11/13 13:30:48;;;;;;;10.00;4.00;;;;;;;14.86;100.00;102012.34;5100017;28;20434;-73
2021/11/13 13:33:14;;;;;;;8.30;2.20;;;;;;;14.93;100.00;102015.47;5093671;28;20548;-73
2021/11/13 13:35:41;;;;;;;5.53;2.27;;;;;;;14.90;100.00;102002.44;5102763;28;20508;-71